sensor_id;sensor_type;location;lat;lon;timestamp;temperature;humidity
35299;DHT22;21415;48.054;16.646;2023-02-08T00:01:11;3.80;46.70
35299;DHT22;21415;48.054;16.646;2023-02-08T00:03:37;3.90;47.70
35299;DHT22;21415;48.054;16.646;2023-02-08T00:06:03;3.70;46.50
35299;DHT22;21415;48.054;16.646;2023-02-08T00:08:29;3.40;46.40
35299;DHT22;21415;48.054;16.646;2023-02-08T00:10:55;3.50;46.60
35299;DHT22;21415;48.054;16.646;2023-02-08T00:13:21;3.50;46.50
35299;DHT22;21415;48.054;16.646;2023-02-08T00:15:46;3.50;46.00
35299;DHT22;21415;48.054;16.646;2023-02-08T00:18:13;3.80;46.10
35299;DHT22;21415;48.054;16.646;2023-02-08T00:20:39;3.70;46.00
35299;DHT22;21415;48.054;16.646;2023-02-08T00:23:05;3.50;46.20
35299;DHT22;21415;48.054;16.646;2023-02-08T00:25:31;3.90;45.90
35299;DHT22;21415;48.054;16.646;2023-02-08T00:27:57;3.70;45.70
35299;DHT22;21415;48.054;16.646;2023-02-08T00:30:23;4.00;45.80
35299;DHT22;21415;48.054;16.646;2023-02-08T00:32:49;4.00;45.80
35299;DHT22;21415;48.054;16.646;2023-02-08T00:35:14;3.60;45.50
35299;DHT22;21415;48.054;16.646;2023-02-08T00:37:40;3.40;45.40
35299;DHT22;21415;48.054;16.646;2023-02-08T00:40:07;3.70;45.60
35299;DHT22;21415;48.054;16.646;2023-02-08T00:42:32;3.40;45.50
35299;DHT22;21415;48.054;16.646;2023-02-08T00:44:58;3.60;45.50
35299;DHT22;21415;48.054;16.646;2023-02-08T00:47:24;3.50;45.50
35299;DHT22;21415;48.054;16.646;2023-02-08T00:49:50;3.30;45.30
35299;DHT22;21415;48.054;16.646;2023-02-08T00:52:16;3.60;45.50
35299;DHT22;21415;48.054;16.646;2023-02-08T00:54:42;3.50;45.50
35299;DHT22;21415;48.054;16.646;2023-02-08T00:57:09;3.40;45.80
35299;DHT22;21415;48.054;16.646;2023-02-08T00:59:35;3.60;45.50
35299;DHT22;21415;48.054;16.646;2023-02-08T01:02:00;3.50;45.50
35299;DHT22;21415;48.054;16.646;2023-02-08T01:04:26;3.30;45.40
35299;DHT22;21415;48.054;16.646;2023-02-08T01:06:52;3.60;45.60
35299;DHT22;21415;48.054;16.646;2023-02-08T01:09:18;3.30;45.50
35299;DHT22;21415;48.054;16.646;2023-02-08T01:11:44;3.30;45.50
35299;DHT22;21415;48.054;16.646;2023-02-08T01:14:09;3.20;45.50
35299;DHT22;21415;48.054;16.646;2023-02-08T01:16:36;3.50;45.70
35299;DHT22;21415;48.054;16.646;2023-02-08T01:19:03;3.20;45.80
35299;DHT22;21415;48.054;16.646;2023-02-08T01:21:32;3.20;45.40
35299;DHT22;21415;48.054;16.646;2023-02-08T01:23:59;3.30;45.50
35299;DHT22;21415;48.054;16.646;2023-02-08T01:26:26;3.20;45.40
35299;DHT22;21415;48.054;16.646;2023-02-08T01:28:53;3.00;45.30
35299;DHT22;21415;48.054;16.646;2023-02-08T01:31:22;3.40;45.60
35299;DHT22;21415;48.054;16.646;2023-02-08T01:33:49;3.50;45.60
35299;DHT22;21415;48.054;16.646;2023-02-08T01:36:15;3.10;45.40
35299;DHT22;21415;48.054;16.646;2023-02-08T01:38:42;3.00;45.30
35299;DHT22;21415;48.054;16.646;2023-02-08T01:41:15;3.10;45.40
35299;DHT22;21415;48.054;16.646;2023-02-08T01:46:31;2.80;45.40
35299;DHT22;21415;48.054;16.646;2023-02-08T01:49:10;3.10;45.30
35299;DHT22;21415;48.054;16.646;2023-02-08T01:51:40;3.30;45.40
35299;DHT22;21415;48.054;16.646;2023-02-08T01:54:10;3.20;45.40
35299;DHT22;21415;48.054;16.646;2023-02-08T01:56:39;3.20;45.40
35299;DHT22;21415;48.054;16.646;2023-02-08T01:59:11;3.10;45.30
35299;DHT22;21415;48.054;16.646;2023-02-08T02:01:39;2.90;45.20
35299;DHT22;21415;48.054;16.646;2023-02-08T02:04:07;3.10;45.30
35299;DHT22;21415;48.054;16.646;2023-02-08T02:06:37;2.80;45.10
35299;DHT22;21415;48.054;16.646;2023-02-08T02:09:30;2.90;45.20
35299;DHT22;21415;48.054;16.646;2023-02-08T02:11:59;2.60;45.20
35299;DHT22;21415;48.054;16.646;2023-02-08T02:14:25;2.70;45.10
35299;DHT22;21415;48.054;16.646;2023-02-08T02:16:51;2.70;45.00
35299;DHT22;21415;48.054;16.646;2023-02-08T02:36:52;2.30;45.10
35299;DHT22;21415;48.054;16.646;2023-02-08T02:39:43;2.30;45.00
35299;DHT22;21415;48.054;16.646;2023-02-08T02:42:35;2.40;45.10
35299;DHT22;21415;48.054;16.646;2023-02-08T02:45:32;2.20;45.00
35299;DHT22;21415;48.054;16.646;2023-02-08T02:48:05;2.80;45.30
35299;DHT22;21415;48.054;16.646;2023-02-08T02:50:43;2.40;45.60
35299;DHT22;21415;48.054;16.646;2023-02-08T02:53:33;2.50;45.20
35299;DHT22;21415;48.054;16.646;2023-02-08T02:56:08;2.10;45.00
35299;DHT22;21415;48.054;16.646;2023-02-08T02:58:37;2.50;45.20
35299;DHT22;21415;48.054;16.646;2023-02-08T03:01:04;2.00;44.90
35299;DHT22;21415;48.054;16.646;2023-02-08T03:03:32;2.20;45.00
35299;DHT22;21415;48.054;16.646;2023-02-08T03:06:12;2.20;45.10
35299;DHT22;21415;48.054;16.646;2023-02-08T03:11:31;2.20;45.20
35299;DHT22;21415;48.054;16.646;2023-02-08T03:22:21;1.90;45.20
35299;DHT22;21415;48.054;16.646;2023-02-08T03:24:54;2.00;45.30
35299;DHT22;21415;48.054;16.646;2023-02-08T03:27:35;2.50;45.50
35299;DHT22;21415;48.054;16.646;2023-02-08T03:30:19;2.10;45.40
35299;DHT22;21415;48.054;16.646;2023-02-08T03:32:51;1.80;45.20
35299;DHT22;21415;48.054;16.646;2023-02-08T03:35:19;2.40;45.50
35299;DHT22;21415;48.054;16.646;2023-02-08T03:37:59;2.50;45.50
35299;DHT22;21415;48.054;16.646;2023-02-08T03:40:30;1.70;45.10
35299;DHT22;21415;48.054;16.646;2023-02-08T03:43:01;1.90;45.20
35299;DHT22;21415;48.054;16.646;2023-02-08T03:45:38;2.10;45.30
35299;DHT22;21415;48.054;16.646;2023-02-08T03:48:07;2.10;45.30
35299;DHT22;21415;48.054;16.646;2023-02-08T03:50:37;2.00;45.20
35299;DHT22;21415;48.054;16.646;2023-02-08T03:53:04;1.80;45.10
35299;DHT22;21415;48.054;16.646;2023-02-08T03:55:33;2.00;45.20
35299;DHT22;21415;48.054;16.646;2023-02-08T04:01:15;1.60;45.20
35299;DHT22;21415;48.054;16.646;2023-02-08T04:03:44;1.60;45.30
35299;DHT22;21415;48.054;16.646;2023-02-08T04:06:11;2.20;45.40
35299;DHT22;21415;48.054;16.646;2023-02-08T04:08:37;2.10;45.40
35299;DHT22;21415;48.054;16.646;2023-02-08T04:11:02;2.20;45.40
35299;DHT22;21415;48.054;16.646;2023-02-08T04:13:28;1.40;44.90
35299;DHT22;21415;48.054;16.646;2023-02-08T04:15:54;2.10;45.40
35299;DHT22;21415;48.054;16.646;2023-02-08T04:18:19;2.10;45.40
35299;DHT22;21415;48.054;16.646;2023-02-08T04:20:45;2.10;45.60
35299;DHT22;21415;48.054;16.646;2023-02-08T04:23:11;2.00;45.50
35299;DHT22;21415;48.054;16.646;2023-02-08T04:25:37;1.80;45.40
35299;DHT22;21415;48.054;16.646;2023-02-08T04:28:02;1.50;45.30
35299;DHT22;21415;48.054;16.646;2023-02-08T04:30:28;1.40;45.20
35299;DHT22;21415;48.054;16.646;2023-02-08T04:32:54;1.40;45.20
35299;DHT22;21415;48.054;16.646;2023-02-08T04:35:20;1.60;45.30
35299;DHT22;21415;48.054;16.646;2023-02-08T04:37:45;1.80;45.40
35299;DHT22;21415;48.054;16.646;2023-02-08T04:40:11;2.00;45.50
35299;DHT22;21415;48.054;16.646;2023-02-08T04:42:37;2.20;45.60
35299;DHT22;21415;48.054;16.646;2023-02-08T04:45:03;1.90;45.40
35299;DHT22;21415;48.054;16.646;2023-02-08T04:47:29;1.30;45.10
35299;DHT22;21415;48.054;16.646;2023-02-08T04:49:54;2.40;45.70
35299;DHT22;21415;48.054;16.646;2023-02-08T04:52:20;1.20;45.10
35299;DHT22;21415;48.054;16.646;2023-02-08T04:54:46;1.60;45.40
35299;DHT22;21415;48.054;16.646;2023-02-08T04:57:12;1.80;45.40
35299;DHT22;21415;48.054;16.646;2023-02-08T04:59:39;1.70;45.50
35299;DHT22;21415;48.054;16.646;2023-02-08T05:02:04;1.80;45.40
35299;DHT22;21415;48.054;16.646;2023-02-08T05:04:30;1.50;45.30
35299;DHT22;21415;48.054;16.646;2023-02-08T05:06:56;1.30;45.20
35299;DHT22;21415;48.054;16.646;2023-02-08T05:09:22;1.90;45.40
35299;DHT22;21415;48.054;16.646;2023-02-08T05:11:48;1.70;45.30
35299;DHT22;21415;48.054;16.646;2023-02-08T05:14:13;1.90;45.50
35299;DHT22;21415;48.054;16.646;2023-02-08T05:16:39;1.90;45.50
35299;DHT22;21415;48.054;16.646;2023-02-08T05:19:05;1.80;45.50
35299;DHT22;21415;48.054;16.646;2023-02-08T05:21:30;1.70;45.40
35299;DHT22;21415;48.054;16.646;2023-02-08T05:23:56;1.60;45.40
35299;DHT22;21415;48.054;16.646;2023-02-08T05:26:22;1.80;45.50
35299;DHT22;21415;48.054;16.646;2023-02-08T05:28:48;1.70;45.40
35299;DHT22;21415;48.054;16.646;2023-02-08T05:31:19;1.80;45.40
35299;DHT22;21415;48.054;16.646;2023-02-08T05:33:46;1.90;45.60
35299;DHT22;21415;48.054;16.646;2023-02-08T05:36:12;1.50;45.40
35299;DHT22;21415;48.054;16.646;2023-02-08T05:38:38;1.30;45.20
35299;DHT22;21415;48.054;16.646;2023-02-08T05:41:04;1.80;45.40
35299;DHT22;21415;48.054;16.646;2023-02-08T05:43:30;1.70;45.40
35299;DHT22;21415;48.054;16.646;2023-02-08T05:45:56;2.50;45.90
35299;DHT22;21415;48.054;16.646;2023-02-08T05:48:21;2.30;45.90
35299;DHT22;21415;48.054;16.646;2023-02-08T05:50:47;1.70;45.50
35299;DHT22;21415;48.054;16.646;2023-02-08T05:53:13;1.70;45.50
35299;DHT22;21415;48.054;16.646;2023-02-08T05:55:39;1.40;45.30
35299;DHT22;21415;48.054;16.646;2023-02-08T05:58:04;1.70;45.50
35299;DHT22;21415;48.054;16.646;2023-02-08T06:00:30;1.70;45.50
35299;DHT22;21415;48.054;16.646;2023-02-08T06:02:56;1.70;45.50
35299;DHT22;21415;48.054;16.646;2023-02-08T06:05:22;1.70;45.60
35299;DHT22;21415;48.054;16.646;2023-02-08T06:07:48;1.60;45.80
35299;DHT22;21415;48.054;16.646;2023-02-08T06:10:14;1.70;46.00
35299;DHT22;21415;48.054;16.646;2023-02-08T06:12:39;0.90;45.10
35299;DHT22;21415;48.054;16.646;2023-02-08T06:15:05;1.60;45.50
35299;DHT22;21415;48.054;16.646;2023-02-08T06:17:31;0.80;45.10
35299;DHT22;21415;48.054;16.646;2023-02-08T06:19:57;1.50;45.50
35299;DHT22;21415;48.054;16.646;2023-02-08T06:22:23;1.00;45.30
35299;DHT22;21415;48.054;16.646;2023-02-08T06:24:49;1.60;45.60
35299;DHT22;21415;48.054;16.646;2023-02-08T06:27:15;1.50;45.60
35299;DHT22;21415;48.054;16.646;2023-02-08T06:29:40;1.70;45.80
35299;DHT22;21415;48.054;16.646;2023-02-08T06:32:06;1.70;45.80
35299;DHT22;21415;48.054;16.646;2023-02-08T06:34:32;2.00;46.00
35299;DHT22;21415;48.054;16.646;2023-02-08T06:36:58;1.50;45.80
35299;DHT22;21415;48.054;16.646;2023-02-08T06:39:27;1.30;45.70
35299;DHT22;21415;48.054;16.646;2023-02-08T06:41:54;1.30;45.70
35299;DHT22;21415;48.054;16.646;2023-02-08T06:44:19;1.30;45.70
35299;DHT22;21415;48.054;16.646;2023-02-08T06:46:45;1.50;45.90
35299;DHT22;21415;48.054;16.646;2023-02-08T06:49:11;1.40;46.00
35299;DHT22;21415;48.054;16.646;2023-02-08T06:51:37;1.10;45.90
35299;DHT22;21415;48.054;16.646;2023-02-08T06:54:02;1.40;46.10
35299;DHT22;21415;48.054;16.646;2023-02-08T06:56:28;1.60;46.30
35299;DHT22;21415;48.054;16.646;2023-02-08T06:58:55;2.20;46.60
35299;DHT22;21415;48.054;16.646;2023-02-08T07:01:21;1.40;46.30
35299;DHT22;21415;48.054;16.646;2023-02-08T07:03:47;1.80;46.40
35299;DHT22;21415;48.054;16.646;2023-02-08T07:06:17;1.70;46.40
35299;DHT22;21415;48.054;16.646;2023-02-08T07:08:44;1.80;46.50
35299;DHT22;21415;48.054;16.646;2023-02-08T07:11:13;1.80;46.40
35299;DHT22;21415;48.054;16.646;2023-02-08T07:13:40;1.30;46.20
35299;DHT22;21415;48.054;16.646;2023-02-08T07:16:07;1.80;46.30
35299;DHT22;21415;48.054;16.646;2023-02-08T07:18:34;1.80;46.40
35299;DHT22;21415;48.054;16.646;2023-02-08T07:20:59;1.90;46.50
35299;DHT22;21415;48.054;16.646;2023-02-08T07:23:25;1.60;46.30
35299;DHT22;21415;48.054;16.646;2023-02-08T07:26:06;1.80;46.30
35299;DHT22;21415;48.054;16.646;2023-02-08T07:28:32;1.80;46.60
35299;DHT22;21415;48.054;16.646;2023-02-08T07:30:58;2.30;46.50
35299;DHT22;21415;48.054;16.646;2023-02-08T07:33:24;2.00;46.30
35299;DHT22;21415;48.054;16.646;2023-02-08T07:35:50;1.90;46.30
35299;DHT22;21415;48.054;16.646;2023-02-08T07:38:16;2.10;46.30
35299;DHT22;21415;48.054;16.646;2023-02-08T07:40:43;2.00;46.20
35299;DHT22;21415;48.054;16.646;2023-02-08T07:43:08;1.70;46.50
35299;DHT22;21415;48.054;16.646;2023-02-08T07:45:46;1.70;46.50
35299;DHT22;21415;48.054;16.646;2023-02-08T07:48:12;1.90;46.20
35299;DHT22;21415;48.054;16.646;2023-02-08T07:50:37;2.00;46.30
35299;DHT22;21415;48.054;16.646;2023-02-08T07:53:03;2.20;46.60
35299;DHT22;21415;48.054;16.646;2023-02-08T07:55:29;2.00;46.70
35299;DHT22;21415;48.054;16.646;2023-02-08T07:57:55;2.10;46.90
35299;DHT22;21415;48.054;16.646;2023-02-08T08:00:21;2.10;47.10
35299;DHT22;21415;48.054;16.646;2023-02-08T08:02:47;2.10;47.10
35299;DHT22;21415;48.054;16.646;2023-02-08T08:05:15;2.10;47.30
35299;DHT22;21415;48.054;16.646;2023-02-08T08:07:41;2.00;47.20
35299;DHT22;21415;48.054;16.646;2023-02-08T08:10:07;2.50;47.50
35299;DHT22;21415;48.054;16.646;2023-02-08T08:12:32;2.10;47.30
35299;DHT22;21415;48.054;16.646;2023-02-08T08:14:58;2.40;47.50
35299;DHT22;21415;48.054;16.646;2023-02-08T08:17:24;2.20;47.30
35299;DHT22;21415;48.054;16.646;2023-02-08T08:19:50;2.40;47.40
35299;DHT22;21415;48.054;16.646;2023-02-08T08:22:15;3.00;47.70
35299;DHT22;21415;48.054;16.646;2023-02-08T08:24:41;3.20;47.90
35299;DHT22;21415;48.054;16.646;2023-02-08T08:27:07;3.30;47.90
35299;DHT22;21415;48.054;16.646;2023-02-08T08:29:35;3.30;47.90
35299;DHT22;21415;48.054;16.646;2023-02-08T08:32:01;3.40;48.00
35299;DHT22;21415;48.054;16.646;2023-02-08T08:34:27;3.10;47.70
35299;DHT22;21415;48.054;16.646;2023-02-08T08:37:00;3.40;47.90
35299;DHT22;21415;48.054;16.646;2023-02-08T08:39:26;3.60;48.00
35299;DHT22;21415;48.054;16.646;2023-02-08T08:41:59;3.50;47.70
35299;DHT22;21415;48.054;16.646;2023-02-08T08:44:25;3.80;47.90
35299;DHT22;21415;48.054;16.646;2023-02-08T08:46:55;3.60;47.60
35299;DHT22;21415;48.054;16.646;2023-02-08T08:49:25;4.00;47.90
35299;DHT22;21415;48.054;16.646;2023-02-08T08:51:51;3.90;47.70
35299;DHT22;21415;48.054;16.646;2023-02-08T08:54:17;4.00;47.50
35299;DHT22;21415;48.054;16.646;2023-02-08T08:56:43;3.90;47.40
35299;DHT22;21415;48.054;16.646;2023-02-08T08:59:09;4.10;47.50
35299;DHT22;21415;48.054;16.646;2023-02-08T09:01:34;4.30;47.40
35299;DHT22;21415;48.054;16.646;2023-02-08T09:04:00;4.40;47.40
35299;DHT22;21415;48.054;16.646;2023-02-08T09:06:26;4.50;47.30
35299;DHT22;21415;48.054;16.646;2023-02-08T09:08:52;4.50;47.30
35299;DHT22;21415;48.054;16.646;2023-02-08T09:11:18;4.50;47.20
35299;DHT22;21415;48.054;16.646;2023-02-08T09:13:43;4.60;47.20
35299;DHT22;21415;48.054;16.646;2023-02-08T09:16:13;4.60;47.10
35299;DHT22;21415;48.054;16.646;2023-02-08T09:18:40;4.80;47.10
35299;DHT22;21415;48.054;16.646;2023-02-08T09:21:06;4.90;47.00
35299;DHT22;21415;48.054;16.646;2023-02-08T09:23:32;4.70;47.00
35299;DHT22;21415;48.054;16.646;2023-02-08T09:25:58;5.30;47.00
35299;DHT22;21415;48.054;16.646;2023-02-08T09:28:26;5.00;46.80
35299;DHT22;21415;48.054;16.646;2023-02-08T09:30:51;5.10;46.80
35299;DHT22;21415;48.054;16.646;2023-02-08T09:33:17;5.20;46.80
35299;DHT22;21415;48.054;16.646;2023-02-08T09:35:43;5.10;46.70
35299;DHT22;21415;48.054;16.646;2023-02-08T09:38:09;5.20;46.80
35299;DHT22;21415;48.054;16.646;2023-02-08T09:40:48;5.10;46.60
35299;DHT22;21415;48.054;16.646;2023-02-08T09:46:22;5.20;46.60
35299;DHT22;21415;48.054;16.646;2023-02-08T09:48:51;5.20;46.50
35299;DHT22;21415;48.054;16.646;2023-02-08T09:51:34;5.40;46.70
35299;DHT22;21415;48.054;16.646;2023-02-08T09:54:23;5.30;46.70
35299;DHT22;21415;48.054;16.646;2023-02-08T09:56:51;5.40;46.60
35299;DHT22;21415;48.054;16.646;2023-02-08T09:59:24;5.60;46.80
35299;DHT22;21415;48.054;16.646;2023-02-08T10:02:10;5.60;46.60
35299;DHT22;21415;48.054;16.646;2023-02-08T10:05:01;5.60;46.60
35299;DHT22;21415;48.054;16.646;2023-02-08T10:07:28;5.60;46.60
35299;DHT22;21415;48.054;16.646;2023-02-08T10:10:00;5.80;47.20
35299;DHT22;21415;48.054;16.646;2023-02-08T10:26:43;6.10;45.90
35299;DHT22;21415;48.054;16.646;2023-02-08T10:32:26;6.50;45.80
35299;DHT22;21415;48.054;16.646;2023-02-08T10:35:04;6.20;45.40
35299;DHT22;21415;48.054;16.646;2023-02-08T10:37:32;6.50;46.30
35299;DHT22;21415;48.054;16.646;2023-02-08T10:40:18;6.50;45.80
35299;DHT22;21415;48.054;16.646;2023-02-08T10:42:59;6.40;45.60
35299;DHT22;21415;48.054;16.646;2023-02-08T10:45:34;6.40;45.70
35299;DHT22;21415;48.054;16.646;2023-02-08T10:48:06;6.50;45.80
35299;DHT22;21415;48.054;16.646;2023-02-08T10:53:04;6.70;45.80
35299;DHT22;21415;48.054;16.646;2023-02-08T10:55:30;6.60;45.80
35299;DHT22;21415;48.054;16.646;2023-02-08T10:58:03;6.90;45.80
35299;DHT22;21415;48.054;16.646;2023-02-08T11:00:48;7.00;45.80
35299;DHT22;21415;48.054;16.646;2023-02-08T11:03:21;6.80;45.20
35299;DHT22;21415;48.054;16.646;2023-02-08T11:05:49;6.90;45.30
35299;DHT22;21415;48.054;16.646;2023-02-08T11:08:19;7.00;45.50
35299;DHT22;21415;48.054;16.646;2023-02-08T11:13:45;7.10;44.70
35299;DHT22;21415;48.054;16.646;2023-02-08T11:16:12;7.20;45.00
35299;DHT22;21415;48.054;16.646;2023-02-08T11:18:50;7.20;44.80
35299;DHT22;21415;48.054;16.646;2023-02-08T11:21:29;7.20;44.40
35299;DHT22;21415;48.054;16.646;2023-02-08T11:24:45;7.30;44.40
35299;DHT22;21415;48.054;16.646;2023-02-08T11:26:45;7.50;44.70
35299;DHT22;21415;48.054;16.646;2023-02-08T11:29:27;7.50;44.60
35299;DHT22;21415;48.054;16.646;2023-02-08T11:36:51;7.60;44.00
35299;DHT22;21415;48.054;16.646;2023-02-08T11:39:27;7.60;44.20
35299;DHT22;21415;48.054;16.646;2023-02-08T11:41:56;7.80;44.10
35299;DHT22;21415;48.054;16.646;2023-02-08T11:44:36;7.60;44.10
35299;DHT22;21415;48.054;16.646;2023-02-08T11:47:07;7.50;43.60
35299;DHT22;21415;48.054;16.646;2023-02-08T11:49:42;7.80;44.10
35299;DHT22;21415;48.054;16.646;2023-02-08T11:52:24;7.90;43.70
35299;DHT22;21415;48.054;16.646;2023-02-08T11:55:10;7.60;43.30
35299;DHT22;21415;48.054;16.646;2023-02-08T12:00:30;7.60;43.10
35299;DHT22;21415;48.054;16.646;2023-02-08T12:03:04;7.50;43.10
35299;DHT22;21415;48.054;16.646;2023-02-08T12:05:48;7.60;43.30
35299;DHT22;21415;48.054;16.646;2023-02-08T12:11:10;7.40;43.30
35299;DHT22;21415;48.054;16.646;2023-02-08T12:13:57;7.40;43.20
35299;DHT22;21415;48.054;16.646;2023-02-08T12:22:29;7.30;42.70
35299;DHT22;21415;48.054;16.646;2023-02-08T12:27:42;7.20;42.60
35299;DHT22;21415;48.054;16.646;2023-02-08T12:30:44;7.30;42.60
35299;DHT22;21415;48.054;16.646;2023-02-08T12:52:48;7.10;42.80
35299;DHT22;21415;48.054;16.646;2023-02-08T12:55:45;7.50;42.70
35299;DHT22;21415;48.054;16.646;2023-02-08T12:58:30;7.10;42.30
35299;DHT22;21415;48.054;16.646;2023-02-08T13:01:18;7.10;42.50
35299;DHT22;21415;48.054;16.646;2023-02-08T13:04:09;7.10;42.40
35299;DHT22;21415;48.054;16.646;2023-02-08T13:06:41;7.20;42.20
35299;DHT22;21415;48.054;16.646;2023-02-08T13:09:34;7.20;42.60
35299;DHT22;21415;48.054;16.646;2023-02-08T13:12:16;7.20;42.00
35299;DHT22;21415;48.054;16.646;2023-02-08T13:17:20;7.20;42.70
35299;DHT22;21415;48.054;16.646;2023-02-08T13:19:57;7.20;42.30
35299;DHT22;21415;48.054;16.646;2023-02-08T13:22:25;7.20;42.40
35299;DHT22;21415;48.054;16.646;2023-02-08T13:24:51;7.30;42.60
35299;DHT22;21415;48.054;16.646;2023-02-08T13:27:21;7.40;42.60
35299;DHT22;21415;48.054;16.646;2023-02-08T13:29:50;7.30;42.40
35299;DHT22;21415;48.054;16.646;2023-02-08T13:32:56;7.30;42.60
35299;DHT22;21415;48.054;16.646;2023-02-08T13:35:29;7.30;42.40
35299;DHT22;21415;48.054;16.646;2023-02-08T13:38:05;7.30;42.60
35299;DHT22;21415;48.054;16.646;2023-02-08T13:40:36;7.30;42.40
35299;DHT22;21415;48.054;16.646;2023-02-08T13:43:24;7.30;42.40
35299;DHT22;21415;48.054;16.646;2023-02-08T13:45:57;7.30;42.10
35299;DHT22;21415;48.054;16.646;2023-02-08T13:48:24;7.40;43.00
35299;DHT22;21415;48.054;16.646;2023-02-08T13:50:53;7.50;42.70
35299;DHT22;21415;48.054;16.646;2023-02-08T13:56:09;7.30;42.10
35299;DHT22;21415;48.054;16.646;2023-02-08T14:03:42;7.40;42.60
35299;DHT22;21415;48.054;16.646;2023-02-08T14:06:25;7.40;42.50
35299;DHT22;21415;48.054;16.646;2023-02-08T14:14:11;7.50;42.50
35299;DHT22;21415;48.054;16.646;2023-02-08T14:17:07;7.50;42.50
35299;DHT22;21415;48.054;16.646;2023-02-08T14:19:38;7.80;42.20
35299;DHT22;21415;48.054;16.646;2023-02-08T14:24:45;7.60;42.40
35299;DHT22;21415;48.054;16.646;2023-02-08T14:27:22;7.60;42.50
35299;DHT22;21415;48.054;16.646;2023-02-08T14:30:04;7.80;42.50
35299;DHT22;21415;48.054;16.646;2023-02-08T14:32:35;7.60;42.20
35299;DHT22;21415;48.054;16.646;2023-02-08T14:37:40;7.70;42.30
35299;DHT22;21415;48.054;16.646;2023-02-08T14:40:30;7.70;42.50
35299;DHT22;21415;48.054;16.646;2023-02-08T14:42:59;7.80;42.00
35299;DHT22;21415;48.054;16.646;2023-02-08T14:45:46;7.80;42.50
35299;DHT22;21415;48.054;16.646;2023-02-08T14:48:41;7.90;42.00
35299;DHT22;21415;48.054;16.646;2023-02-08T14:53:57;8.00;42.40
35299;DHT22;21415;48.054;16.646;2023-02-08T14:56:34;8.00;42.30
35299;DHT22;21415;48.054;16.646;2023-02-08T14:59:05;8.00;42.20
35299;DHT22;21415;48.054;16.646;2023-02-08T15:01:40;8.10;42.40
35299;DHT22;21415;48.054;16.646;2023-02-08T15:04:06;8.00;42.20
35299;DHT22;21415;48.054;16.646;2023-02-08T15:06:41;8.20;42.40
35299;DHT22;21415;48.054;16.646;2023-02-08T15:09:21;8.20;42.30
35299;DHT22;21415;48.054;16.646;2023-02-08T15:14:20;8.10;42.30
35299;DHT22;21415;48.054;16.646;2023-02-08T15:16:47;8.20;42.30
35299;DHT22;21415;48.054;16.646;2023-02-08T15:19:34;8.20;42.30
35299;DHT22;21415;48.054;16.646;2023-02-08T15:24:54;8.20;41.70
35299;DHT22;21415;48.054;16.646;2023-02-08T15:27:31;8.20;41.90
35299;DHT22;21415;48.054;16.646;2023-02-08T15:29:58;8.10;41.50
35299;DHT22;21415;48.054;16.646;2023-02-08T15:32:24;8.20;41.80
35299;DHT22;21415;48.054;16.646;2023-02-08T15:34:57;8.20;41.60
35299;DHT22;21415;48.054;16.646;2023-02-08T15:37:23;8.20;41.70
35299;DHT22;21415;48.054;16.646;2023-02-08T15:39:50;8.30;41.90
35299;DHT22;21415;48.054;16.646;2023-02-08T15:42:22;8.10;41.70
35299;DHT22;21415;48.054;16.646;2023-02-08T15:44:48;8.10;41.70
35299;DHT22;21415;48.054;16.646;2023-02-08T15:47:21;8.20;41.80
35299;DHT22;21415;48.054;16.646;2023-02-08T15:49:49;8.10;41.60
35299;DHT22;21415;48.054;16.646;2023-02-08T15:52:21;7.90;41.60
35299;DHT22;21415;48.054;16.646;2023-02-08T15:54:47;7.90;41.60
35299;DHT22;21415;48.054;16.646;2023-02-08T15:57:21;8.00;41.70
35299;DHT22;21415;48.054;16.646;2023-02-08T15:59:51;7.80;41.60
35299;DHT22;21415;48.054;16.646;2023-02-08T16:02:29;7.80;41.60
35299;DHT22;21415;48.054;16.646;2023-02-08T16:04:57;7.60;41.50
35299;DHT22;21415;48.054;16.646;2023-02-08T16:09:49;7.50;41.60
35299;DHT22;21415;48.054;16.646;2023-02-08T16:12:20;7.50;41.70
35299;DHT22;21415;48.054;16.646;2023-02-08T16:14:46;7.60;41.70
35299;DHT22;21415;48.054;16.646;2023-02-08T16:19:56;7.40;41.60
35299;DHT22;21415;48.054;16.646;2023-02-08T16:22:30;7.30;41.70
35299;DHT22;21415;48.054;16.646;2023-02-08T16:25:22;7.30;41.90
35299;DHT22;21415;48.054;16.646;2023-02-08T16:27:48;7.10;42.00
35299;DHT22;21415;48.054;16.646;2023-02-08T16:30:17;7.10;42.00
35299;DHT22;21415;48.054;16.646;2023-02-08T16:32:44;7.00;42.10
35299;DHT22;21415;48.054;16.646;2023-02-08T16:35:18;7.00;42.20
35299;DHT22;21415;48.054;16.646;2023-02-08T16:37:51;6.90;42.20
35299;DHT22;21415;48.054;16.646;2023-02-08T16:45:44;6.70;42.40
35299;DHT22;21415;48.054;16.646;2023-02-08T16:48:34;7.00;42.60
35299;DHT22;21415;48.054;16.646;2023-02-08T16:51:13;6.80;42.60
35299;DHT22;21415;48.054;16.646;2023-02-08T16:53:41;6.50;42.50
35299;DHT22;21415;48.054;16.646;2023-02-08T16:56:07;6.50;42.50
35299;DHT22;21415;48.054;16.646;2023-02-08T16:58:33;6.60;42.70
35299;DHT22;21415;48.054;16.646;2023-02-08T17:00:59;6.70;42.60
35299;DHT22;21415;48.054;16.646;2023-02-08T17:03:25;6.70;42.80
35299;DHT22;21415;48.054;16.646;2023-02-08T17:05:51;6.60;42.90
35299;DHT22;21415;48.054;16.646;2023-02-08T17:08:20;6.20;42.80
35299;DHT22;21415;48.054;16.646;2023-02-08T17:10:47;6.50;43.20
35299;DHT22;21415;48.054;16.646;2023-02-08T17:13:17;6.30;43.20
35299;DHT22;21415;48.054;16.646;2023-02-08T17:15:44;6.40;43.30
35299;DHT22;21415;48.054;16.646;2023-02-08T17:18:12;6.20;43.20
35299;DHT22;21415;48.054;16.646;2023-02-08T17:20:38;6.20;43.20
35299;DHT22;21415;48.054;16.646;2023-02-08T17:23:05;6.00;43.10
35299;DHT22;21415;48.054;16.646;2023-02-08T17:25:32;6.10;43.30
35299;DHT22;21415;48.054;16.646;2023-02-08T17:28:02;5.90;43.30
35299;DHT22;21415;48.054;16.646;2023-02-08T17:30:34;6.00;43.40
35299;DHT22;21415;48.054;16.646;2023-02-08T17:33:00;6.00;43.70
35299;DHT22;21415;48.054;16.646;2023-02-08T17:35:29;5.90;43.60
35299;DHT22;21415;48.054;16.646;2023-02-08T17:37:56;5.90;43.70
35299;DHT22;21415;48.054;16.646;2023-02-08T17:40:27;5.80;43.70
35299;DHT22;21415;48.054;16.646;2023-02-08T17:42:58;5.90;44.40
35299;DHT22;21415;48.054;16.646;2023-02-08T17:45:24;5.70;43.80
35299;DHT22;21415;48.054;16.646;2023-02-08T17:47:50;5.70;43.80
35299;DHT22;21415;48.054;16.646;2023-02-08T17:50:16;5.70;43.80
35299;DHT22;21415;48.054;16.646;2023-02-08T17:52:44;5.60;43.80
35299;DHT22;21415;48.054;16.646;2023-02-08T17:55:12;5.80;44.00
35299;DHT22;21415;48.054;16.646;2023-02-08T17:57:39;5.60;43.90
35299;DHT22;21415;48.054;16.646;2023-02-08T18:00:09;5.70;44.00
35299;DHT22;21415;48.054;16.646;2023-02-08T18:02:48;5.50;43.90
35299;DHT22;21415;48.054;16.646;2023-02-08T18:05:15;5.60;44.00
35299;DHT22;21415;48.054;16.646;2023-02-08T18:07:41;5.40;43.70